sensor_id;sensor_type;location;lat;lon;timestamp;P1;durP1;ratioP1;P2;durP2;ratioP2
20095;SDS011;10207;50.942;6.900;2023-11-22T00:01:03;15.55;;;10.75;;
20095;SDS011;10207;50.942;6.900;2023-11-22T00:03:29;16.90;;;11.18;;
20095;SDS011;10207;50.942;6.900;2023-11-22T00:05:54;16.75;;;11.68;;
20095;SDS011;10207;50.942;6.900;2023-11-22T00:08:20;16.23;;;9.95;;
20095;SDS011;10207;50.942;6.900;2023-11-22T00:10:46;15.93;;;10.93;;
20095;SDS011;10207;50.942;6.900;2023-11-22T00:13:12;16.08;;;10.35;;
20095;SDS011;10207;50.942;6.900;2023-11-22T00:15:38;17.67;;;11.18;;
20095;SDS011;10207;50.942;6.900;2023-11-22T00:18:04;16.90;;;11.00;;
20095;SDS011;10207;50.942;6.900;2023-11-22T00:20:30;15.20;;;10.65;;
20095;SDS011;10207;50.942;6.900;2023-11-22T00:22:56;16.45;;;11.07;;
20095;SDS011;10207;50.942;6.900;2023-11-22T00:25:22;15.48;;;11.00;;
20095;SDS011;10207;50.942;6.900;2023-11-22T00:27:48;15.30;;;11.50;;
20095;SDS011;10207;50.942;6.900;2023-11-22T00:30:14;17.98;;;11.60;;
20095;SDS011;10207;50.942;6.900;2023-11-22T00:32:40;21.15;;;10.85;;
20095;SDS011;10207;50.942;6.900;2023-11-22T00:35:08;17.00;;;11.50;;
20095;SDS011;10207;50.942;6.900;2023-11-22T00:37:35;19.70;;;11.25;;
20095;SDS011;10207;50.942;6.900;2023-11-22T00:40:02;17.63;;;10.77;;
20095;SDS011;10207;50.942;6.900;2023-11-22T00:42:39;19.63;;;10.60;;
20095;SDS011;10207;50.942;6.900;2023-11-22T00:45:07;15.90;;;10.95;;
20095;SDS011;10207;50.942;6.900;2023-11-22T00:47:33;16.27;;;11.57;;
20095;SDS011;10207;50.942;6.900;2023-11-22T00:49:59;18.75;;;11.65;;
20095;SDS011;10207;50.942;6.900;2023-11-22T00:52:25;15.07;;;10.48;;
20095;SDS011;10207;50.942;6.900;2023-11-22T00:54:51;14.00;;;10.10;;
20095;SDS011;10207;50.942;6.900;2023-11-22T00:57:17;22.80;;;12.50;;
20095;SDS011;10207;50.942;6.900;2023-11-22T00:59:43;14.88;;;9.43;;
20095;SDS011;10207;50.942;6.900;2023-11-22T01:02:09;18.20;;;11.48;;
20095;SDS011;10207;50.942;6.900;2023-11-22T01:04:35;17.45;;;10.75;;
20095;SDS011;10207;50.942;6.900;2023-11-22T01:07:02;14.60;;;10.02;;
20095;SDS011;10207;50.942;6.900;2023-11-22T01:09:30;15.93;;;10.73;;
20095;SDS011;10207;50.942;6.900;2023-11-22T01:11:57;16.50;;;10.00;;
20095;SDS011;10207;50.942;6.900;2023-11-22T01:14:23;16.08;;;11.23;;
20095;SDS011;10207;50.942;6.900;2023-11-22T01:16:49;18.67;;;11.13;;
20095;SDS011;10207;50.942;6.900;2023-11-22T01:19:15;16.63;;;11.40;;
20095;SDS011;10207;50.942;6.900;2023-11-22T01:21:41;16.33;;;10.82;;
20095;SDS011;10207;50.942;6.900;2023-11-22T01:24:07;17.25;;;10.65;;
20095;SDS011;10207;50.942;6.900;2023-11-22T01:26:33;15.43;;;10.77;;
20095;SDS011;10207;50.942;6.900;2023-11-22T01:29:00;16.08;;;10.75;;
20095;SDS011;10207;50.942;6.900;2023-11-22T01:31:26;14.98;;;9.75;;
20095;SDS011;10207;50.942;6.900;2023-11-22T01:33:53;17.60;;;10.38;;
20095;SDS011;10207;50.942;6.900;2023-11-22T01:36:19;14.85;;;10.52;;
20095;SDS011;10207;50.942;6.900;2023-11-22T01:38:45;15.32;;;10.63;;
20095;SDS011;10207;50.942;6.900;2023-11-22T01:41:12;18.02;;;12.32;;
20095;SDS011;10207;50.942;6.900;2023-11-22T01:43:41;17.00;;;11.07;;
20095;SDS011;10207;50.942;6.900;2023-11-22T01:46:07;18.00;;;11.52;;
20095;SDS011;10207;50.942;6.900;2023-11-22T01:48:34;16.08;;;10.40;;
20095;SDS011;10207;50.942;6.900;2023-11-22T01:51:03;19.40;;;10.85;;
20095;SDS011;10207;50.942;6.900;2023-11-22T01:53:29;19.92;;;11.10;;
20095;SDS011;10207;50.942;6.900;2023-11-22T01:55:56;18.58;;;11.85;;
20095;SDS011;10207;50.942;6.900;2023-11-22T01:58:22;19.27;;;10.75;;
20095;SDS011;10207;50.942;6.900;2023-11-22T02:00:50;15.63;;;11.18;;
20095;SDS011;10207;50.942;6.900;2023-11-22T02:03:17;15.70;;;10.15;;
20095;SDS011;10207;50.942;6.900;2023-11-22T02:05:43;15.18;;;11.07;;
20095;SDS011;10207;50.942;6.900;2023-11-22T02:08:09;13.95;;;9.85;;
20095;SDS011;10207;50.942;6.900;2023-11-22T02:10:36;15.52;;;10.02;;
20095;SDS011;10207;50.942;6.900;2023-11-22T02:13:03;14.23;;;9.73;;
20095;SDS011;10207;50.942;6.900;2023-11-22T02:15:30;14.63;;;9.68;;
20095;SDS011;10207;50.942;6.900;2023-11-22T02:17:57;16.75;;;9.82;;
20095;SDS011;10207;50.942;6.900;2023-11-22T02:20:23;16.38;;;10.30;;
20095;SDS011;10207;50.942;6.900;2023-11-22T02:22:48;15.65;;;10.45;;
20095;SDS011;10207;50.942;6.900;2023-11-22T02:25:15;21.92;;;10.73;;
20095;SDS011;10207;50.942;6.900;2023-11-22T02:27:42;22.25;;;12.40;;
20095;SDS011;10207;50.942;6.900;2023-11-22T02:30:33;17.52;;;10.88;;
20095;SDS011;10207;50.942;6.900;2023-11-22T02:32:58;17.38;;;12.23;;
20095;SDS011;10207;50.942;6.900;2023-11-22T02:35:24;17.73;;;10.55;;
20095;SDS011;10207;50.942;6.900;2023-11-22T02:37:55;17.55;;;10.98;;
20095;SDS011;10207;50.942;6.900;2023-11-22T02:40:21;15.55;;;10.77;;
20095;SDS011;10207;50.942;6.900;2023-11-22T02:42:48;16.17;;;11.05;;
20095;SDS011;10207;50.942;6.900;2023-11-22T02:45:15;17.77;;;10.32;;
20095;SDS011;10207;50.942;6.900;2023-11-22T02:47:42;18.70;;;10.52;;
20095;SDS011;10207;50.942;6.900;2023-11-22T02:50:12;17.52;;;10.68;;
20095;SDS011;10207;50.942;6.900;2023-11-22T02:52:38;16.10;;;10.57;;
20095;SDS011;10207;50.942;6.900;2023-11-22T02:55:04;17.80;;;10.90;;
20095;SDS011;10207;50.942;6.900;2023-11-22T02:57:33;16.65;;;10.43;;
20095;SDS011;10207;50.942;6.900;2023-11-22T02:59:58;18.83;;;10.73;;
20095;SDS011;10207;50.942;6.900;2023-11-22T03:02:24;20.67;;;11.48;;
20095;SDS011;10207;50.942;6.900;2023-11-22T03:04:51;15.50;;;10.00;;
20095;SDS011;10207;50.942;6.900;2023-11-22T03:07:17;16.88;;;11.45;;
20095;SDS011;10207;50.942;6.900;2023-11-22T03:09:43;20.17;;;11.10;;
20095;SDS011;10207;50.942;6.900;2023-11-22T03:12:11;13.68;;;10.23;;
20095;SDS011;10207;50.942;6.900;2023-11-22T03:14:38;14.43;;;10.02;;
20095;SDS011;10207;50.942;6.900;2023-11-22T03:17:04;14.57;;;9.90;;
20095;SDS011;10207;50.942;6.900;2023-11-22T03:19:31;14.68;;;10.23;;
20095;SDS011;10207;50.942;6.900;2023-11-22T03:22:00;16.80;;;10.88;;
20095;SDS011;10207;50.942;6.900;2023-11-22T03:24:25;15.45;;;10.38;;
20095;SDS011;10207;50.942;6.900;2023-11-22T03:26:51;16.80;;;11.13;;
20095;SDS011;10207;50.942;6.900;2023-11-22T03:29:18;17.63;;;11.82;;
20095;SDS011;10207;50.942;6.900;2023-11-22T03:31:44;14.77;;;10.43;;
20095;SDS011;10207;50.942;6.900;2023-11-22T03:34:10;15.68;;;10.73;;
20095;SDS011;10207;50.942;6.900;2023-11-22T03:36:36;16.70;;;10.02;;
20095;SDS011;10207;50.942;6.900;2023-11-22T03:39:02;16.83;;;11.00;;
20095;SDS011;10207;50.942;6.900;2023-11-22T03:41:28;16.52;;;11.40;;
20095;SDS011;10207;50.942;6.900;2023-11-22T03:43:54;19.53;;;11.60;;
20095;SDS011;10207;50.942;6.900;2023-11-22T03:46:20;16.98;;;11.35;;
20095;SDS011;10207;50.942;6.900;2023-11-22T03:48:46;17.52;;;11.40;;
20095;SDS011;10207;50.942;6.900;2023-11-22T03:51:12;18.80;;;11.15;;
20095;SDS011;10207;50.942;6.900;2023-11-22T03:53:38;16.90;;;11.20;;
20095;SDS011;10207;50.942;6.900;2023-11-22T03:56:04;20.05;;;12.80;;
20095;SDS011;10207;50.942;6.900;2023-11-22T03:58:30;21.83;;;12.00;;
20095;SDS011;10207;50.942;6.900;2023-11-22T04:00:56;19.23;;;12.65;;
20095;SDS011;10207;50.942;6.900;2023-11-22T04:03:22;22.23;;;13.15;;
20095;SDS011;10207;50.942;6.900;2023-11-22T04:05:48;19.40;;;12.73;;
20095;SDS011;10207;50.942;6.900;2023-11-22T04:08:14;20.35;;;12.63;;
20095;SDS011;10207;50.942;6.900;2023-11-22T04:10:40;22.40;;;12.60;;
20095;SDS011;10207;50.942;6.900;2023-11-22T04:13:06;22.83;;;13.47;;
20095;SDS011;10207;50.942;6.900;2023-11-22T04:15:32;22.53;;;14.17;;
20095;SDS011;10207;50.942;6.900;2023-11-22T04:17:57;24.83;;;15.97;;
20095;SDS011;10207;50.942;6.900;2023-11-22T04:20:24;26.20;;;15.03;;
20095;SDS011;10207;50.942;6.900;2023-11-22T04:22:49;29.17;;;15.37;;
20095;SDS011;10207;50.942;6.900;2023-11-22T04:25:16;26.85;;;15.40;;
20095;SDS011;10207;50.942;6.900;2023-11-22T04:27:42;25.85;;;15.00;;
20095;SDS011;10207;50.942;6.900;2023-11-22T04:30:08;21.88;;;13.43;;
20095;SDS011;10207;50.942;6.900;2023-11-22T04:32:38;24.60;;;14.40;;
20095;SDS011;10207;50.942;6.900;2023-11-22T04:35:05;28.30;;;14.80;;
20095;SDS011;10207;50.942;6.900;2023-11-22T04:37:31;24.05;;;15.63;;
20095;SDS011;10207;50.942;6.900;2023-11-22T04:39:58;24.80;;;14.37;;
20095;SDS011;10207;50.942;6.900;2023-11-22T04:42:24;24.73;;;16.27;;
20095;SDS011;10207;50.942;6.900;2023-11-22T04:44:50;23.17;;;15.13;;
20095;SDS011;10207;50.942;6.900;2023-11-22T04:47:15;28.40;;;16.92;;
20095;SDS011;10207;50.942;6.900;2023-11-22T04:49:41;26.27;;;15.50;;
20095;SDS011;10207;50.942;6.900;2023-11-22T04:52:07;28.65;;;16.83;;
20095;SDS011;10207;50.942;6.900;2023-11-22T04:54:33;27.53;;;14.60;;
20095;SDS011;10207;50.942;6.900;2023-11-22T04:56:59;31.33;;;17.43;;
20095;SDS011;10207;50.942;6.900;2023-11-22T04:59:25;30.13;;;16.97;;
20095;SDS011;10207;50.942;6.900;2023-11-22T05:01:51;26.87;;;16.33;;
20095;SDS011;10207;50.942;6.900;2023-11-22T05:04:17;29.23;;;17.13;;
20095;SDS011;10207;50.942;6.900;2023-11-22T05:06:44;33.00;;;18.07;;
20095;SDS011;10207;50.942;6.900;2023-11-22T05:09:11;34.40;;;17.63;;
20095;SDS011;10207;50.942;6.900;2023-11-22T05:11:39;29.47;;;17.83;;
20095;SDS011;10207;50.942;6.900;2023-11-22T05:14:07;35.70;;;17.80;;
20095;SDS011;10207;50.942;6.900;2023-11-22T05:16:33;38.23;;;18.27;;
20095;SDS011;10207;50.942;6.900;2023-11-22T05:18:59;34.23;;;19.73;;
20095;SDS011;10207;50.942;6.900;2023-11-22T05:21:25;37.33;;;19.37;;
20095;SDS011;10207;50.942;6.900;2023-11-22T05:23:51;37.30;;;19.50;;
20095;SDS011;10207;50.942;6.900;2023-11-22T05:26:20;36.70;;;19.73;;
20095;SDS011;10207;50.942;6.900;2023-11-22T05:28:46;40.03;;;20.83;;
20095;SDS011;10207;50.942;6.900;2023-11-22T05:31:13;37.47;;;19.40;;
20095;SDS011;10207;50.942;6.900;2023-11-22T05:33:39;37.53;;;18.60;;
20095;SDS011;10207;50.942;6.900;2023-11-22T05:36:06;40.17;;;19.90;;
20095;SDS011;10207;50.942;6.900;2023-11-22T05:38:31;38.77;;;19.57;;
20095;SDS011;10207;50.942;6.900;2023-11-22T05:40:59;46.63;;;22.27;;
20095;SDS011;10207;50.942;6.900;2023-11-22T05:43:25;39.37;;;20.00;;
20095;SDS011;10207;50.942;6.900;2023-11-22T05:45:55;35.83;;;20.00;;
20095;SDS011;10207;50.942;6.900;2023-11-22T05:48:21;36.10;;;20.23;;
20095;SDS011;10207;50.942;6.900;2023-11-22T05:50:47;44.97;;;21.07;;
20095;SDS011;10207;50.942;6.900;2023-11-22T05:53:13;41.63;;;20.03;;
20095;SDS011;10207;50.942;6.900;2023-11-22T05:55:53;39.23;;;18.43;;
20095;SDS011;10207;50.942;6.900;2023-11-22T05:58:19;47.67;;;22.40;;
20095;SDS011;10207;50.942;6.900;2023-11-22T06:00:45;51.30;;;22.33;;
20095;SDS011;10207;50.942;6.900;2023-11-22T06:03:11;45.43;;;21.67;;
20095;SDS011;10207;50.942;6.900;2023-11-22T06:05:37;38.00;;;19.90;;
20095;SDS011;10207;50.942;6.900;2023-11-22T06:08:03;44.40;;;20.60;;
20095;SDS011;10207;50.942;6.900;2023-11-22T06:10:29;40.93;;;20.87;;
20095;SDS011;10207;50.942;6.900;2023-11-22T06:12:55;37.00;;;19.80;;
20095;SDS011;10207;50.942;6.900;2023-11-22T06:15:21;38.30;;;18.60;;
20095;SDS011;10207;50.942;6.900;2023-11-22T06:17:48;37.60;;;18.87;;
20095;SDS011;10207;50.942;6.900;2023-11-22T06:20:17;38.53;;;19.80;;
20095;SDS011;10207;50.942;6.900;2023-11-22T06:22:43;44.40;;;19.07;;
20095;SDS011;10207;50.942;6.900;2023-11-22T06:25:10;44.43;;;19.07;;
20095;SDS011;10207;50.942;6.900;2023-11-22T06:27:39;48.90;;;21.20;;
20095;SDS011;10207;50.942;6.900;2023-11-22T06:30:05;44.20;;;22.50;;
20095;SDS011;10207;50.942;6.900;2023-11-22T06:32:37;44.67;;;20.20;;
20095;SDS011;10207;50.942;6.900;2023-11-22T06:35:03;44.43;;;19.30;;
20095;SDS011;10207;50.942;6.900;2023-11-22T06:37:30;45.87;;;20.47;;
20095;SDS011;10207;50.942;6.900;2023-11-22T06:39:56;45.87;;;19.30;;
20095;SDS011;10207;50.942;6.900;2023-11-22T06:42:23;53.43;;;21.63;;
20095;SDS011;10207;50.942;6.900;2023-11-22T06:44:49;51.70;;;19.53;;
20095;SDS011;10207;50.942;6.900;2023-11-22T06:47:16;50.27;;;21.50;;
20095;SDS011;10207;50.942;6.900;2023-11-22T06:49:42;58.07;;;21.73;;
20095;SDS011;10207;50.942;6.900;2023-11-22T06:52:09;57.13;;;22.50;;
20095;SDS011;10207;50.942;6.900;2023-11-22T06:54:35;58.47;;;22.13;;
20095;SDS011;10207;50.942;6.900;2023-11-22T06:57:02;58.73;;;24.20;;
20095;SDS011;10207;50.942;6.900;2023-11-22T06:59:28;61.23;;;23.43;;
20095;SDS011;10207;50.942;6.900;2023-11-22T07:01:54;65.00;;;23.53;;
20095;SDS011;10207;50.942;6.900;2023-11-22T07:04:21;62.03;;;22.87;;
20095;SDS011;10207;50.942;6.900;2023-11-22T07:06:48;69.73;;;23.70;;
20095;SDS011;10207;50.942;6.900;2023-11-22T07:09:15;77.43;;;24.10;;
20095;SDS011;10207;50.942;6.900;2023-11-22T07:11:41;107.03;;;31.03;;
20095;SDS011;10207;50.942;6.900;2023-11-22T07:14:07;60.43;;;22.53;;
20095;SDS011;10207;50.942;6.900;2023-11-22T07:16:33;76.97;;;25.80;;
20095;SDS011;10207;50.942;6.900;2023-11-22T07:18:59;117.43;;;31.83;;
20095;SDS011;10207;50.942;6.900;2023-11-22T07:21:31;121.20;;;36.07;;
20095;SDS011;10207;50.942;6.900;2023-11-22T07:23:57;70.93;;;23.20;;
20095;SDS011;10207;50.942;6.900;2023-11-22T07:26:24;61.97;;;24.13;;
20095;SDS011;10207;50.942;6.900;2023-11-22T07:28:52;67.53;;;24.17;;
20095;SDS011;10207;50.942;6.900;2023-11-22T07:31:18;59.80;;;22.57;;
20095;SDS011;10207;50.942;6.900;2023-11-22T07:33:45;69.00;;;23.37;;
20095;SDS011;10207;50.942;6.900;2023-11-22T07:36:12;53.27;;;21.57;;
20095;SDS011;10207;50.942;6.900;2023-11-22T07:38:41;61.03;;;23.13;;
20095;SDS011;10207;50.942;6.900;2023-11-22T07:41:08;63.20;;;23.00;;
20095;SDS011;10207;50.942;6.900;2023-11-22T07:43:34;62.37;;;23.20;;
20095;SDS011;10207;50.942;6.900;2023-11-22T07:46:00;66.87;;;24.17;;
20095;SDS011;10207;50.942;6.900;2023-11-22T07:48:30;63.67;;;25.43;;
20095;SDS011;10207;50.942;6.900;2023-11-22T07:50:55;51.30;;;23.17;;
20095;SDS011;10207;50.942;6.900;2023-11-22T07:53:21;48.50;;;22.87;;
20095;SDS011;10207;50.942;6.900;2023-11-22T07:55:47;45.75;;;21.50;;
20095;SDS011;10207;50.942;6.900;2023-11-22T07:58:13;37.90;;;20.47;;
20095;SDS011;10207;50.942;6.900;2023-11-22T08:00:40;36.37;;;20.07;;
20095;SDS011;10207;50.942;6.900;2023-11-22T08:03:08;29.25;;;17.80;;
20095;SDS011;10207;50.942;6.900;2023-11-22T08:05:34;42.85;;;18.48;;
20095;SDS011;10207;50.942;6.900;2023-11-22T08:08:02;30.33;;;14.57;;
20095;SDS011;10207;50.942;6.900;2023-11-22T08:10:32;24.38;;;13.45;;
20095;SDS011;10207;50.942;6.900;2023-11-22T08:12:58;19.63;;;11.57;;
20095;SDS011;10207;50.942;6.900;2023-11-22T08:15:23;22.35;;;11.38;;
20095;SDS011;10207;50.942;6.900;2023-11-22T08:17:49;22.20;;;10.57;;
20095;SDS011;10207;50.942;6.900;2023-11-22T08:20:15;16.63;;;9.43;;
20095;SDS011;10207;50.942;6.900;2023-11-22T08:22:44;26.52;;;11.77;;
20095;SDS011;10207;50.942;6.900;2023-11-22T08:25:11;18.75;;;9.77;;
20095;SDS011;10207;50.942;6.900;2023-11-22T08:27:39;18.98;;;8.68;;
20095;SDS011;10207;50.942;6.900;2023-11-22T08:30:06;11.55;;;8.13;;
20095;SDS011;10207;50.942;6.900;2023-11-22T08:32:35;15.25;;;7.85;;
20095;SDS011;10207;50.942;6.900;2023-11-22T08:35:01;12.50;;;6.45;;
20095;SDS011;10207;50.942;6.900;2023-11-22T08:37:30;12.45;;;8.32;;
20095;SDS011;10207;50.942;6.900;2023-11-22T08:40:01;19.98;;;10.07;;
20095;SDS011;10207;50.942;6.900;2023-11-22T08:42:26;16.42;;;9.90;;
20095;SDS011;10207;50.942;6.900;2023-11-22T08:44:52;18.40;;;9.27;;
20095;SDS011;10207;50.942;6.900;2023-11-22T08:47:18;15.90;;;9.30;;
20095;SDS011;10207;50.942;6.900;2023-11-22T08:49:44;17.70;;;8.63;;
20095;SDS011;10207;50.942;6.900;2023-11-22T08:52:10;14.75;;;8.50;;
20095;SDS011;10207;50.942;6.900;2023-11-22T08:54:37;14.32;;;8.48;;
20095;SDS011;10207;50.942;6.900;2023-11-22T08:57:03;11.68;;;8.93;;
20095;SDS011;10207;50.942;6.900;2023-11-22T08:59:31;15.07;;;8.57;;
20095;SDS011;10207;50.942;6.900;2023-11-22T09:02:04;8.88;;;5.93;;
20095;SDS011;10207;50.942;6.900;2023-11-22T09:04:30;11.95;;;7.15;;
20095;SDS011;10207;50.942;6.900;2023-11-22T09:06:57;9.95;;;6.05;;
20095;SDS011;10207;50.942;6.900;2023-11-22T09:09:23;9.55;;;6.25;;
20095;SDS011;10207;50.942;6.900;2023-11-22T09:11:59;8.70;;;6.43;;
20095;SDS011;10207;50.942;6.900;2023-11-22T09:14:25;9.35;;;6.05;;
20095;SDS011;10207;50.942;6.900;2023-11-22T09:16:51;8.10;;;6.00;;
20095;SDS011;10207;50.942;6.900;2023-11-22T09:19:21;7.13;;;4.97;;
20095;SDS011;10207;50.942;6.900;2023-11-22T09:21:46;7.53;;;5.80;;
20095;SDS011;10207;50.942;6.900;2023-11-22T09:24:12;7.45;;;5.43;;
20095;SDS011;10207;50.942;6.900;2023-11-22T09:26:38;7.85;;;4.95;;
20095;SDS011;10207;50.942;6.900;2023-11-22T09:29:04;7.57;;;5.20;;
20095;SDS011;10207;50.942;6.900;2023-11-22T09:31:30;11.57;;;6.35;;
20095;SDS011;10207;50.942;6.900;2023-11-22T09:33:56;8.88;;;5.40;;
20095;SDS011;10207;50.942;6.900;2023-11-22T09:36:22;9.00;;;6.10;;
20095;SDS011;10207;50.942;6.900;2023-11-22T09:38:51;10.38;;;6.95;;
20095;SDS011;10207;50.942;6.900;2023-11-22T09:41:17;15.45;;;9.05;;
20095;SDS011;10207;50.942;6.900;2023-11-22T09:43:43;8.60;;;5.10;;
20095;SDS011;10207;50.942;6.900;2023-11-22T09:46:11;7.90;;;5.47;;
20095;SDS011;10207;50.942;6.900;2023-11-22T09:48:39;9.20;;;6.03;;
20095;SDS011;10207;50.942;6.900;2023-11-22T09:51:15;11.02;;;5.80;;
20095;SDS011;10207;50.942;6.900;2023-11-22T09:56:19;10.32;;;6.32;;
20095;SDS011;10207;50.942;6.900;2023-11-22T09:58:45;7.63;;;4.90;;
20095;SDS011;10207;50.942;6.900;2023-11-22T10:01:12;12.07;;;4.90;;
20095;SDS011;10207;50.942;6.900;2023-11-22T10:03:38;5.55;;;4.20;;
20095;SDS011;10207;50.942;6.900;2023-11-22T10:06:05;6.45;;;4.35;;
20095;SDS011;10207;50.942;6.900;2023-11-22T10:08:31;6.32;;;4.50;;
20095;SDS011;10207;50.942;6.900;2023-11-22T10:10:57;6.40;;;4.32;;
20095;SDS011;10207;50.942;6.900;2023-11-22T10:13:25;6.85;;;4.55;;
20095;SDS011;10207;50.942;6.900;2023-11-22T10:15:51;10.95;;;4.13;;
20095;SDS011;10207;50.942;6.900;2023-11-22T10:18:21;5.55;;;3.90;;
20095;SDS011;10207;50.942;6.900;2023-11-22T10:20:48;6.60;;;3.85;;
20095;SDS011;10207;50.942;6.900;2023-11-22T10:23:16;7.95;;;4.45;;
20095;SDS011;10207;50.942;6.900;2023-11-22T10:25:43;6.03;;;3.50;;
20095;SDS011;10207;50.942;6.900;2023-11-22T10:28:10;5.05;;;3.13;;
20095;SDS011;10207;50.942;6.900;2023-11-22T10:30:35;7.00;;;3.53;;
20095;SDS011;10207;50.942;6.900;2023-11-22T10:33:04;5.60;;;3.80;;
20095;SDS011;10207;50.942;6.900;2023-11-22T10:35:30;7.57;;;4.10;;
20095;SDS011;10207;50.942;6.900;2023-11-22T10:37:56;7.32;;;3.75;;
20095;SDS011;10207;50.942;6.900;2023-11-22T10:40:24;7.45;;;4.18;;
20095;SDS011;10207;50.942;6.900;2023-11-22T10:42:50;9.85;;;4.05;;
20095;SDS011;10207;50.942;6.900;2023-11-22T10:45:18;5.22;;;3.67;;
20095;SDS011;10207;50.942;6.900;2023-11-22T10:47:44;4.97;;;3.83;;
20095;SDS011;10207;50.942;6.900;2023-11-22T10:50:11;5.70;;;3.50;;
20095;SDS011;10207;50.942;6.900;2023-11-22T10:52:39;5.32;;;3.80;;
20095;SDS011;10207;50.942;6.900;2023-11-22T10:55:06;6.50;;;3.85;;
20095;SDS011;10207;50.942;6.900;2023-11-22T10:57:32;5.43;;;3.67;;
20095;SDS011;10207;50.942;6.900;2023-11-22T11:00:03;10.07;;;3.67;;
20095;SDS011;10207;50.942;6.900;2023-11-22T11:02:32;5.25;;;3.03;;
20095;SDS011;10207;50.942;6.900;2023-11-22T11:05:03;5.55;;;3.80;;
20095;SDS011;10207;50.942;6.900;2023-11-22T11:07:33;7.47;;;3.40;;
20095;SDS011;10207;50.942;6.900;2023-11-22T11:10:02;6.70;;;3.30;;
20095;SDS011;10207;50.942;6.900;2023-11-22T11:12:27;7.65;;;3.38;;
20095;SDS011;10207;50.942;6.900;2023-11-22T11:14:53;4.35;;;2.97;;
20095;SDS011;10207;50.942;6.900;2023-11-22T11:17:20;4.22;;;2.90;;
20095;SDS011;10207;50.942;6.900;2023-11-22T11:19:47;6.15;;;3.60;;
20095;SDS011;10207;50.942;6.900;2023-11-22T11:22:13;4.47;;;3.30;;
20095;SDS011;10207;50.942;6.900;2023-11-22T11:24:39;5.50;;;3.88;;
20095;SDS011;10207;50.942;6.900;2023-11-22T11:27:09;5.95;;;3.67;;
20095;SDS011;10207;50.942;6.900;2023-11-22T11:29:36;6.38;;;3.25;;
20095;SDS011;10207;50.942;6.900;2023-11-22T11:32:15;7.70;;;3.95;;
20095;SDS011;10207;50.942;6.900;2023-11-22T11:34:55;6.32;;;3.80;;
20095;SDS011;10207;50.942;6.900;2023-11-22T11:37:21;5.13;;;3.50;;
20095;SDS011;10207;50.942;6.900;2023-11-22T11:39:48;8.75;;;4.50;;
20095;SDS011;10207;50.942;6.900;2023-11-22T11:42:14;6.70;;;3.65;;
20095;SDS011;10207;50.942;6.900;2023-11-22T11:47:24;7.68;;;3.63;;
20095;SDS011;10207;50.942;6.900;2023-11-22T11:49:50;5.60;;;3.60;;
20095;SDS011;10207;50.942;6.900;2023-11-22T11:52:16;6.82;;;3.00;;
20095;SDS011;10207;50.942;6.900;2023-11-22T11:54:42;6.40;;;3.42;;
20095;SDS011;10207;50.942;6.900;2023-11-22T11:57:08;3.92;;;3.00;;
20095;SDS011;10207;50.942;6.900;2023-11-22T11:59:34;6.78;;;3.50;;
20095;SDS011;10207;50.942;6.900;2023-11-22T12:02:00;5.18;;;2.90;;
20095;SDS011;10207;50.942;6.900;2023-11-22T12:04:26;6.25;;;3.33;;
20095;SDS011;10207;50.942;6.900;2023-11-22T12:06:52;11.38;;;5.03;;
20095;SDS011;10207;50.942;6.900;2023-11-22T12:09:22;17.40;;;6.20;;
20095;SDS011;10207;50.942;6.900;2023-11-22T12:11:50;10.90;;;4.22;;
20095;SDS011;10207;50.942;6.900;2023-11-22T12:14:15;3.95;;;2.70;;
20095;SDS011;10207;50.942;6.900;2023-11-22T12:16:41;5.68;;;3.10;;
20095;SDS011;10207;50.942;6.900;2023-11-22T12:19:09;5.00;;;2.70;;
20095;SDS011;10207;50.942;6.900;2023-11-22T12:21:35;4.82;;;3.08;;
20095;SDS011;10207;50.942;6.900;2023-11-22T12:24:01;6.82;;;3.90;;
20095;SDS011;10207;50.942;6.900;2023-11-22T12:26:31;13.95;;;4.90;;
20095;SDS011;10207;50.942;6.900;2023-11-22T12:28:59;10.10;;;4.53;;
20095;SDS011;10207;50.942;6.900;2023-11-22T12:31:27;6.60;;;3.35;;
20095;SDS011;10207;50.942;6.900;2023-11-22T12:33:55;10.10;;;2.92;;
20095;SDS011;10207;50.942;6.900;2023-11-22T12:36:22;5.85;;;3.10;;
20095;SDS011;10207;50.942;6.900;2023-11-22T12:38:49;5.30;;;2.63;;
20095;SDS011;10207;50.942;6.900;2023-11-22T12:41:15;6.05;;;3.47;;
20095;SDS011;10207;50.942;6.900;2023-11-22T12:43:41;3.88;;;2.80;;
20095;SDS011;10207;50.942;6.900;2023-11-22T12:46:07;5.28;;;3.28;;
20095;SDS011;10207;50.942;6.900;2023-11-22T12:48:33;7.82;;;3.13;;
20095;SDS011;10207;50.942;6.900;2023-11-22T12:50:59;8.73;;;3.60;;
20095;SDS011;10207;50.942;6.900;2023-11-22T12:53:25;7.93;;;3.35;;
20095;SDS011;10207;50.942;6.900;2023-11-22T12:55:54;6.20;;;3.38;;
20095;SDS011;10207;50.942;6.900;2023-11-22T12:58:20;6.30;;;2.70;;
20095;SDS011;10207;50.942;6.900;2023-11-22T13:00:47;6.30;;;3.35;;
20095;SDS011;10207;50.942;6.900;2023-11-22T13:03:13;4.85;;;3.42;;
20095;SDS011;10207;50.942;6.900;2023-11-22T13:05:40;4.75;;;3.42;;
20095;SDS011;10207;50.942;6.900;2023-11-22T13:08:08;5.40;;;3.00;;
20095;SDS011;10207;50.942;6.900;2023-11-22T13:10:36;7.90;;;3.88;;
20095;SDS011;10207;50.942;6.900;2023-11-22T13:13:02;5.10;;;2.72;;
20095;SDS011;10207;50.942;6.900;2023-11-22T13:15:28;6.20;;;3.38;;
20095;SDS011;10207;50.942;6.900;2023-11-22T13:17:54;4.68;;;3.10;;
20095;SDS011;10207;50.942;6.900;2023-11-22T13:20:24;5.65;;;3.15;;
20095;SDS011;10207;50.942;6.900;2023-11-22T13:22:54;5.13;;;3.40;;
20095;SDS011;10207;50.942;6.900;2023-11-22T13:25:21;7.10;;;3.53;;
20095;SDS011;10207;50.942;6.900;2023-11-22T13:27:47;11.13;;;3.78;;
20095;SDS011;10207;50.942;6.900;2023-11-22T13:30:14;6.43;;;3.28;;
20095;SDS011;10207;50.942;6.900;2023-11-22T13:32:40;6.95;;;3.17;;
20095;SDS011;10207;50.942;6.900;2023-11-22T13:35:08;7.00;;;3.42;;
20095;SDS011;10207;50.942;6.900;2023-11-22T13:37:40;5.25;;;2.95;;
20095;SDS011;10207;50.942;6.900;2023-11-22T13:40:10;6.15;;;2.83;;
20095;SDS011;10207;50.942;6.900;2023-11-22T13:42:42;4.20;;;2.70;;
20095;SDS011;10207;50.942;6.900;2023-11-22T13:45:09;5.72;;;2.70;;
20095;SDS011;10207;50.942;6.900;2023-11-22T13:47:35;5.38;;;2.95;;
20095;SDS011;10207;50.942;6.900;2023-11-22T13:50:01;5.65;;;3.38;;
20095;SDS011;10207;50.942;6.900;2023-11-22T13:52:29;7.40;;;3.03;;
20095;SDS011;10207;50.942;6.900;2023-11-22T13:54:55;4.43;;;2.90;;
20095;SDS011;10207;50.942;6.900;2023-11-22T13:57:23;6.07;;;2.88;;
20095;SDS011;10207;50.942;6.900;2023-11-22T13:59:48;4.85;;;2.60;;
20095;SDS011;10207;50.942;6.900;2023-11-22T14:02:15;6.60;;;3.03;;
20095;SDS011;10207;50.942;6.900;2023-11-22T14:04:42;3.95;;;2.72;;
20095;SDS011;10207;50.942;6.900;2023-11-22T14:07:08;6.65;;;2.55;;
20095;SDS011;10207;50.942;6.900;2023-11-22T14:09:33;4.00;;;2.30;;
20095;SDS011;10207;50.942;6.900;2023-11-22T14:12:02;8.05;;;2.30;;
20095;SDS011;10207;50.942;6.900;2023-11-22T14:14:29;5.13;;;2.58;;
20095;SDS011;10207;50.942;6.900;2023-11-22T14:16:54;5.68;;;2.78;;
20095;SDS011;10207;50.942;6.900;2023-11-22T14:19:20;7.22;;;3.10;;
20095;SDS011;10207;50.942;6.900;2023-11-22T14:21:46;9.88;;;3.63;;
20095;SDS011;10207;50.942;6.900;2023-11-22T14:24:12;7.28;;;4.30;;
20095;SDS011;10207;50.942;6.900;2023-11-22T14:26:38;7.40;;;3.65;;
20095;SDS011;10207;50.942;6.900;2023-11-22T14:29:04;7.13;;;4.03;;
20095;SDS011;10207;50.942;6.900;2023-11-22T14:31:31;8.10;;;3.90;;
20095;SDS011;10207;50.942;6.900;2023-11-22T14:33:58;9.30;;;5.03;;